Kasagimaru — JJ3905 — position and weather

sailwx.info

Track history (hours):
 
Tides and Currents Weather Stations Pressure Air Temp Water Temp Dewpoint Dewpoint Depression Visibility Wind Speed Wind Dir Waves Ship Positions

Kasagimaru

Last reported at 2016-Aug-30 04:33 UTC. Time now 2016-Aug-30 05:02 UTC.
Position N 34°13' E 135°09'.

Length 42 m; draft 3.5 m.

Type: Tug. MMSI: 431300268.

Date/timePositionNaut miles runAvg speedWind from/ knotsBaromVisibWave heightAir tempDewpointWater temp
2016-Aug-30 04:33N 34°13' E 135°09'0 0.0
2016-Aug-30 03:33N 34°13' E 135°09'0 0.0
2016-Aug-30 02:33N 34°13' E 135°09'0 0.0
2016-Aug-30 01:33N 34°13' E 135°09'9 9.2
2016-Aug-30 00:34N 34°21' E 135°05'1312.5
2016-Aug-29 23:33N 34°30' E 135°17'8 7.6
2016-Aug-29 22:34N 34°33' E 135°25'1 0.7
2016-Aug-29 21:25N 34°33' E 135°25'1 1.5
2016-Aug-29 20:33N 34°33' E 135°27'0 0.0
2016-Aug-29 19:30N 34°33' E 135°27'0 0.0
2016-Aug-29 18:31N 34°33' E 135°27'0 0.0
2016-Aug-29 17:33N 34°33' E 135°27'0 0.0
2016-Aug-29 16:33N 34°33' E 135°27'0 0.0
2016-Aug-29 15:33N 34°33' E 135°27'0 0.0
2016-Aug-29 14:28N 34°33' E 135°27'0 0.0
2016-Aug-29 13:23N 34°33' E 135°27'0 0.0
2016-Aug-29 12:34N 34°33' E 135°27'0 0.0
2016-Aug-29 11:33N 34°33' E 135°27'0 0.0
2016-Aug-29 10:33N 34°33' E 135°27'0 0.0
2016-Aug-29 09:32N 34°33' E 135°27'0 0.0
2016-Aug-29 08:32N 34°33' E 135°27'0 0.0
2016-Aug-29 07:32N 34°33' E 135°27'1 0.6
2016-Aug-29 05:29N 34°33' E 135°25'8 8.9
2016-Aug-29 04:33N 34°29' E 135°17'11 3.5
2016-Aug-29 01:34N 34°28' E 135°04'10 9.5
2016-Aug-29 00:33N 34°37' E 135°01'2 0.1
2016-Aug-27 21:16N 34°37' E 134°58'7 9.9
2016-Aug-27 20:33N 34°36' E 135°06'9 7.6
2016-Aug-27 19:24N 34°27' E 135°05'1011.4
2016-Aug-27 18:29N 34°18' E 134°60'7 6.8
2016-Aug-27 17:28N 34°11' E 135°02'8 8.2
2016-Aug-27 16:31N 34°19' E 135°04'1010.0
2016-Aug-27 15:33N 34°24' E 135°14'1110.3
2016-Aug-27 14:32N 34°31' E 135°24'0 0.0
2016-Aug-26 11:24N 34°31' E 135°24'0 0.0
2016-Aug-26 10:33N 34°31' E 135°24'0 0.0
2016-Aug-26 09:31N 34°31' E 135°24'2 2.0
2016-Aug-26 08:33N 34°32' E 135°23'1 1.4
2016-Aug-26 07:33N 34°31' E 135°23'0 0.0
2016-Aug-26 06:33N 34°31' E 135°23'0 0.0
2016-Aug-26 04:33N 34°31' E 135°23'0 0.0
2016-Aug-26 03:33N 34°31' E 135°23'0 0.0
2016-Aug-26 02:33N 34°31' E 135°23'0 0.0
2016-Aug-26 01:33N 34°31' E 135°23'0 0.0
2016-Aug-26 00:33N 34°31' E 135°23'1 1.0
2016-Aug-25 23:32N 34°32' E 135°23'7 6.9
2016-Aug-25 22:33N 34°26' E 135°19'3 2.6
2016-Aug-25 21:31N 34°28' E 135°19'8 0.6
2016-Aug-25 08:15N 34°33' E 135°27'0 0.0
2016-Aug-25 06:08N 34°33' E 135°27'0 0.0
2016-Aug-25 04:22N 34°33' E 135°27'0 0.0
2016-Aug-25 03:23N 34°33' E 135°27'0 0.0
2016-Aug-25 01:05N 34°33' E 135°27'0 0.0
2016-Aug-24 10:27N 34°33' E 135°27'0 0.0
2016-Aug-24 09:33N 34°33' E 135°27'0 0.0
2016-Aug-24 08:33N 34°33' E 135°27'0 0.0
2016-Aug-24 07:33N 34°33' E 135°27'5 4.9
2016-Aug-24 06:28N 34°33' E 135°20'4 2.1
2016-Aug-24 04:32N 34°33' E 135°25'0 0.2
2016-Aug-24 03:33N 34°33' E 135°25'0 0.1
2016-Aug-24 02:33N 34°33' E 135°25'0 0.0
2016-Aug-24 01:30N 34°33' E 135°25'0 0.1
2016-Aug-24 00:33N 34°33' E 135°25'0 0.1
2016-Aug-23 23:33N 34°33' E 135°25'0 0.0
2016-Aug-23 22:31N 34°33' E 135°25'0 0.0
2016-Aug-23 21:33N 34°33' E 135°25'0 0.1
2016-Aug-23 20:33N 34°33' E 135°25'0 0.0
2016-Aug-23 19:23N 34°33' E 135°25'0 0.1
2016-Aug-23 18:33N 34°33' E 135°25'0 0.0
2016-Aug-23 17:29N 34°33' E 135°25'0 0.1
2016-Aug-23 16:33N 34°33' E 135°25'0 0.1
2016-Aug-23 15:32N 34°33' E 135°25'0 0.0
2016-Aug-23 14:33N 34°33' E 135°25'0 0.1
2016-Aug-23 13:33N 34°33' E 135°25'0 0.0
2016-Aug-23 12:33N 34°33' E 135°25'0 0.0
2016-Aug-23 11:33N 34°33' E 135°25'0 0.0
2016-Aug-23 10:33N 34°33' E 135°25'0 0.1
2016-Aug-23 09:33N 34°33' E 135°25'0 0.0
2016-Aug-23 08:32N 34°33' E 135°25'0 0.1
2016-Aug-23 07:33N 34°33' E 135°25'0 0.1
2016-Aug-23 06:27N 34°33' E 135°25'0 0.2
2016-Aug-23 05:33N 34°33' E 135°25'3 3.5
2016-Aug-23 04:33N 34°33' E 135°21'2 2.1
2016-Aug-23 03:33N 34°32' E 135°19'6 0.3
2016-Aug-22 09:20N 34°33' E 135°27'0 0.0
2016-Aug-22 08:14N 34°33' E 135°27'0 0.0
2016-Aug-22 07:30N 34°33' E 135°27'0 0.0
2016-Aug-22 06:26N 34°33' E 135°27'0 0.0
2016-Aug-22 05:24N 34°33' E 135°27'0 0.1
2016-Aug-22 04:27N 34°33' E 135°27'2 2.0
2016-Aug-22 03:29N 34°34' E 135°24'0 0.1
2016-Aug-22 02:27N 34°34' E 135°24'2 1.8
2016-Aug-22 01:28N 34°33' E 135°22'1 1.3
2016-Aug-22 00:33N 34°33' E 135°21'3 1.6
2016-Aug-21 22:33N 34°31' E 135°23'2 1.6
2016-Aug-21 21:33N 34°32' E 135°23'3 0.6
2016-Aug-21 16:23N 34°33' E 135°27'0 0.0
2016-Aug-21 15:23N 34°33' E 135°27'0 0.0
2016-Aug-21 14:04N 34°33' E 135°27'0 0.0
2016-Aug-21 13:33N 34°33' E 135°27'0 0.0
2016-Aug-21 11:23N 34°33' E 135°27'0 0.0
2016-Aug-21 09:31N 34°33' E 135°27'0 0.0
2016-Aug-21 08:32N 34°33' E 135°27'0 0.0
2016-Aug-21 07:16N 34°33' E 135°27'1 0.9
2016-Aug-21 06:33N 34°33' E 135°26'0 0.1
2016-Aug-21 05:33N 34°33' E 135°26'5 4.6
2016-Aug-21 04:33N 34°34' E 135°20'4 4.1
2016-Aug-21 03:33N 34°33' E 135°25'1 1.2
2016-Aug-21 02:33N 34°33' E 135°27'0 0.0
2016-Aug-21 01:07N 34°33' E 135°27'0 0.0
2016-Aug-20 12:06N 34°33' E 135°27'0 0.0
2016-Aug-20 10:18N 34°33' E 135°27'0 0.0
2016-Aug-20 09:26N 34°33' E 135°27'0 0.0
2016-Aug-20 08:24N 34°33' E 135°27'0 0.0
2016-Aug-20 07:32N 34°33' E 135°27'1010.1
2016-Aug-20 06:33N 34°29' E 135°16'  
Track history (hours):
 
Tides and Currents Weather Stations Pressure Air Temp Water Temp Dewpoint Dewpoint Depression Visibility Wind Speed Wind Dir Waves Ship Positions

Kasagimaru

Last reported at 2016-Aug-30 04:33 UTC. Time now 2016-Aug-30 05:02 UTC.
Position N 34°13' E 135°09'.

Length 42 m; draft 3.5 m.

Type: Tug. MMSI: 431300268.

Date/timePositionNaut miles runAvg speedWind from/ knotsBaromVisibWave heightAir tempDewpointWater temp
2016-Aug-30 04:33N 34°13' E 135°09'0 0.0
2016-Aug-30 03:33N 34°13' E 135°09'0 0.0
2016-Aug-30 02:33N 34°13' E 135°09'0 0.0
2016-Aug-30 01:33N 34°13' E 135°09'9 9.2
2016-Aug-30 00:34N 34°21' E 135°05'1312.5
2016-Aug-29 23:33N 34°30' E 135°17'8 7.6
2016-Aug-29 22:34N 34°33' E 135°25'1 0.7
2016-Aug-29 21:25N 34°33' E 135°25'1 1.5
2016-Aug-29 20:33N 34°33' E 135°27'0 0.0
2016-Aug-29 19:30N 34°33' E 135°27'0 0.0
2016-Aug-29 18:31N 34°33' E 135°27'0 0.0
2016-Aug-29 17:33N 34°33' E 135°27'0 0.0
2016-Aug-29 16:33N 34°33' E 135°27'0 0.0
2016-Aug-29 15:33N 34°33' E 135°27'0 0.0
2016-Aug-29 14:28N 34°33' E 135°27'0 0.0
2016-Aug-29 13:23N 34°33' E 135°27'0 0.0
2016-Aug-29 12:34N 34°33' E 135°27'0 0.0
2016-Aug-29 11:33N 34°33' E 135°27'0 0.0
2016-Aug-29 10:33N 34°33' E 135°27'0 0.0
2016-Aug-29 09:32N 34°33' E 135°27'0 0.0
2016-Aug-29 08:32N 34°33' E 135°27'0 0.0
2016-Aug-29 07:32N 34°33' E 135°27'1 0.6
2016-Aug-29 05:29N 34°33' E 135°25'8 8.9
2016-Aug-29 04:33N 34°29' E 135°17'11 3.5
2016-Aug-29 01:34N 34°28' E 135°04'10 9.5
2016-Aug-29 00:33N 34°37' E 135°01'2 0.1
2016-Aug-27 21:16N 34°37' E 134°58'7 9.9
2016-Aug-27 20:33N 34°36' E 135°06'9 7.6
2016-Aug-27 19:24N 34°27' E 135°05'1011.4
2016-Aug-27 18:29N 34°18' E 134°60'7 6.8
2016-Aug-27 17:28N 34°11' E 135°02'8 8.2
2016-Aug-27 16:31N 34°19' E 135°04'1010.0
2016-Aug-27 15:33N 34°24' E 135°14'1110.3
2016-Aug-27 14:32N 34°31' E 135°24'0 0.0
2016-Aug-26 11:24N 34°31' E 135°24'0 0.0
2016-Aug-26 10:33N 34°31' E 135°24'0 0.0
2016-Aug-26 09:31N 34°31' E 135°24'2 2.0
2016-Aug-26 08:33N 34°32' E 135°23'1 1.4
2016-Aug-26 07:33N 34°31' E 135°23'0 0.0
2016-Aug-26 06:33N 34°31' E 135°23'0 0.0
2016-Aug-26 04:33N 34°31' E 135°23'0 0.0
2016-Aug-26 03:33N 34°31' E 135°23'0 0.0
2016-Aug-26 02:33N 34°31' E 135°23'0 0.0
2016-Aug-26 01:33N 34°31' E 135°23'0 0.0
2016-Aug-26 00:33N 34°31' E 135°23'1 1.0
2016-Aug-25 23:32N 34°32' E 135°23'7 6.9
2016-Aug-25 22:33N 34°26' E 135°19'3 2.6
2016-Aug-25 21:31N 34°28' E 135°19'8 0.6
2016-Aug-25 08:15N 34°33' E 135°27'0 0.0
2016-Aug-25 06:08N 34°33' E 135°27'0 0.0
2016-Aug-25 04:22N 34°33' E 135°27'0 0.0
2016-Aug-25 03:23N 34°33' E 135°27'0 0.0
2016-Aug-25 01:05N 34°33' E 135°27'0 0.0
2016-Aug-24 10:27N 34°33' E 135°27'0 0.0
2016-Aug-24 09:33N 34°33' E 135°27'0 0.0
2016-Aug-24 08:33N 34°33' E 135°27'0 0.0
2016-Aug-24 07:33N 34°33' E 135°27'5 4.9
2016-Aug-24 06:28N 34°33' E 135°20'4 2.1
2016-Aug-24 04:32N 34°33' E 135°25'0 0.2
2016-Aug-24 03:33N 34°33' E 135°25'0 0.1
2016-Aug-24 02:33N 34°33' E 135°25'0 0.0
2016-Aug-24 01:30N 34°33' E 135°25'0 0.1
2016-Aug-24 00:33N 34°33' E 135°25'0 0.1
2016-Aug-23 23:33N 34°33' E 135°25'0 0.0
2016-Aug-23 22:31N 34°33' E 135°25'0 0.0
2016-Aug-23 21:33N 34°33' E 135°25'0 0.1
2016-Aug-23 20:33N 34°33' E 135°25'0 0.0
2016-Aug-23 19:23N 34°33' E 135°25'0 0.1
2016-Aug-23 18:33N 34°33' E 135°25'0 0.0
2016-Aug-23 17:29N 34°33' E 135°25'0 0.1
2016-Aug-23 16:33N 34°33' E 135°25'0 0.1
2016-Aug-23 15:32N 34°33' E 135°25'0 0.0
2016-Aug-23 14:33N 34°33' E 135°25'0 0.1
2016-Aug-23 13:33N 34°33' E 135°25'0 0.0
2016-Aug-23 12:33N 34°33' E 135°25'0 0.0
2016-Aug-23 11:33N 34°33' E 135°25'0 0.0
2016-Aug-23 10:33N 34°33' E 135°25'0 0.1
2016-Aug-23 09:33N 34°33' E 135°25'0 0.0
2016-Aug-23 08:32N 34°33' E 135°25'0 0.1
2016-Aug-23 07:33N 34°33' E 135°25'0 0.1
2016-Aug-23 06:27N 34°33' E 135°25'0 0.2
2016-Aug-23 05:33N 34°33' E 135°25'3 3.5
2016-Aug-23 04:33N 34°33' E 135°21'2 2.1
2016-Aug-23 03:33N 34°32' E 135°19'6 0.3
2016-Aug-22 09:20N 34°33' E 135°27'0 0.0
2016-Aug-22 08:14N 34°33' E 135°27'0 0.0
2016-Aug-22 07:30N 34°33' E 135°27'0 0.0
2016-Aug-22 06:26N 34°33' E 135°27'0 0.0
2016-Aug-22 05:24N 34°33' E 135°27'0 0.1
2016-Aug-22 04:27N 34°33' E 135°27'2 2.0
2016-Aug-22 03:29N 34°34' E 135°24'0 0.1
2016-Aug-22 02:27N 34°34' E 135°24'2 1.8
2016-Aug-22 01:28N 34°33' E 135°22'1 1.3
2016-Aug-22 00:33N 34°33' E 135°21'3 1.6
2016-Aug-21 22:33N 34°31' E 135°23'2 1.6
2016-Aug-21 21:33N 34°32' E 135°23'3 0.6
2016-Aug-21 16:23N 34°33' E 135°27'0 0.0
2016-Aug-21 15:23N 34°33' E 135°27'0 0.0
2016-Aug-21 14:04N 34°33' E 135°27'0 0.0
2016-Aug-21 13:33N 34°33' E 135°27'0 0.0
2016-Aug-21 11:23N 34°33' E 135°27'0 0.0
2016-Aug-21 09:31N 34°33' E 135°27'0 0.0
2016-Aug-21 08:32N 34°33' E 135°27'0 0.0
2016-Aug-21 07:16N 34°33' E 135°27'1 0.9
2016-Aug-21 06:33N 34°33' E 135°26'0 0.1
2016-Aug-21 05:33N 34°33' E 135°26'5 4.6
2016-Aug-21 04:33N 34°34' E 135°20'4 4.1
2016-Aug-21 03:33N 34°33' E 135°25'1 1.2
2016-Aug-21 02:33N 34°33' E 135°27'0 0.0
2016-Aug-21 01:07N 34°33' E 135°27'0 0.0
2016-Aug-20 12:06N 34°33' E 135°27'0 0.0
2016-Aug-20 10:18N 34°33' E 135°27'0 0.0
2016-Aug-20 09:26N 34°33' E 135°27'0 0.0
2016-Aug-20 08:24N 34°33' E 135°27'0 0.0
2016-Aug-20 07:32N 34°33' E 135°27'1010.1
2016-Aug-20 06:33N 34°29' E 135°16'  

Dump ship's entire track history